Time;durP1;ratioP1;P1;durP2;ratioP2;P2;SDS_P1;SDS_P2;PMS_P1;PMS_P2;Temp;Humidity;BMP_temperature;BMP_pressure;BME280_temperature;BME280_humidity;BME280_pressure;Samples;Min_cycle;Max_cycle;Signal;HPM_P1;HPM_P2
2022/04/10 00:00:16;;;;;;;;;;;;;;;10.53;45.62;99334.19;4449423;32;19984;-77
2022/04/10 00:02:44;;;;;;;;;;;;;;;10.51;45.86;99332.44;4462894;32;20028;-82
2022/04/10 00:05:11;;;;;;;;;;;;;;;10.63;45.53;99333.41;4463353;32;20263;-79
2022/04/10 00:07:37;;;;;;;;;;;;;;;10.63;46.20;99325.66;4462299;32;19996;-79
2022/04/10 00:10:05;;;;;;;;;;;;;;;10.75;46.09;99318.81;4465082;32;19984;-76
2022/04/10 00:12:32;;;;;;;;;;;;;;;10.82;46.16;99320.59;4464321;32;20450;-78
2022/04/10 00:14:59;;;;;;;;;;;;;;;10.89;46.14;99324.97;4461105;31;19980;-82
2022/04/10 00:17:26;;;;;;;;;;;;;;;10.86;46.06;99314.59;4468286;32;20356;-79
2022/04/10 00:19:52;;;;;;;;;;;;;;;10.83;45.72;99314.56;4462887;32;20021;-81
2022/04/10 00:22:19;;;;;;;;;;;;;;;10.76;45.86;99312.78;4463011;32;20371;-76
2022/04/10 00:24:46;;;;;;;;;;;;;;;10.69;46.10;99304.97;4453646;32;19976;-78
2022/04/10 00:27:14;;;;;;;;;;;;;;;10.79;45.50;99315.41;4434778;32;19994;-75
2022/04/10 00:29:41;;;;;;;;;;;;;;;10.65;45.93;99313.56;4422932;32;20720;-81
2022/04/10 00:32:08;;;;;;;;;;;;;;;10.90;45.07;99321.50;4400105;32;20345;-75
2022/04/10 00:34:35;;;;;;;;;;;;;;;10.84;45.17;99319.72;4412292;32;20303;-78
2022/04/10 00:37:02;;;;;;;;;;;;;;;10.80;45.23;99323.16;4400295;32;19978;-75
2022/04/10 00:39:30;;;;;;;;;;;;;;;10.55;46.10;99316.09;4409869;32;20256;-75
2022/04/10 00:41:57;;;;;;;;;;;;;;;10.56;45.63;99318.69;4401246;32;20021;-77
2022/04/10 00:44:24;;;;;;;;;;;;;;;10.26;47.43;99324.47;4401640;32;20071;-79
2022/04/10 00:46:51;;;;;;;;;;;;;;;10.21;47.36;99327.00;4405907;32;19985;-76
2022/04/10 00:49:19;;;;;;;;;;;;;;;10.36;46.83;99320.25;4416588;32;20037;-77
2022/04/10 00:51:46;;;;;;;;;;;;;;;10.33;47.10;99325.38;4416358;32;19985;-77
2022/04/10 00:54:18;;;;;;;;;;;;;;;10.38;46.93;99331.47;4398839;32;19993;-76
2022/04/10 00:56:45;;;;;;;;;;;;;;;10.12;47.99;99336.38;4415190;32;20005;-79
2022/04/10 00:59:12;;;;;;;;;;;;;;;10.29;47.46;99339.16;4410539;32;20068;-77
2022/04/10 01:01:40;;;;;;;;;;;;;;;10.14;47.80;99340.69;4412417;32;20449;-77
2022/04/10 01:04:27;;;;;;;;;;;;;;;10.05;48.22;99344.91;4410134;32;20020;-78
2022/04/10 01:06:54;;;;;;;;;;;;;;;10.07;48.56;99359.59;4407391;32;19978;-79
2022/04/10 01:09:21;;;;;;;;;;;;;;;10.19;48.37;99367.47;4414806;32;20000;-80
2022/04/10 01:11:48;;;;;;;;;;;;;;;10.31;47.96;99373.69;4411199;32;20053;-75
2022/04/10 01:14:15;;;;;;;;;;;;;;;10.14;48.38;99363.09;4413793;32;19966;-75
2022/04/10 01:16:42;;;;;;;;;;;;;;;10.12;48.78;99363.09;4413418;32;20009;-73
2022/04/10 01:19:10;;;;;;;;;;;;;;;10.36;47.51;99367.66;4412819;32;19999;-78
2022/04/10 01:21:39;;;;;;;;;;;;;;;10.18;48.34;99373.50;4407852;32;20280;-72
2022/04/10 01:24:06;;;;;;;;;;;;;;;10.33;47.97;99377.13;4401063;32;20681;-78
2022/04/10 01:26:33;;;;;;;;;;;;;;;10.41;47.17;99375.50;4401076;32;20052;-80
2022/04/10 01:29:21;;;;;;;;;;;;;;;10.03;48.21;99373.34;4419361;32;19993;-74
2022/04/10 01:31:48;;;;;;;;;;;;;;;9.93;48.50;99376.69;4416476;32;20001;-77
2022/04/10 01:34:15;;;;;;;;;;;;;;;9.82;48.96;99383.44;4410135;32;19994;-76
2022/04/10 01:36:43;;;;;;;;;;;;;;;9.99;48.19;99389.69;4417895;32;19990;-76
2022/04/10 01:39:11;;;;;;;;;;;;;;;9.91;48.57;99388.72;4401130;32;20016;-74
2022/04/10 01:41:38;;;;;;;;;;;;;;;9.33;50.24;99388.88;4402529;32;19990;-75
2022/04/10 01:44:06;;;;;;;;;;;;;;;9.34;50.47;99390.59;4418772;32;20023;-76
2022/04/10 01:46:33;;;;;;;;;;;;;;;9.60;49.31;99396.09;4405211;32;20006;-74
2022/04/10 01:49:01;;;;;;;;;;;;;;;9.42;49.43;99393.28;4416419;32;20402;-73
2022/04/10 01:51:28;;;;;;;;;;;;;;;9.30;50.48;99394.84;4402309;32;19993;-76
2022/04/10 01:53:55;;;;;;;;;;;;;;;9.42;49.67;99398.47;4411040;32;20027;-75
2022/04/10 01:56:22;;;;;;;;;;;;;;;9.61;49.50;99394.41;4414668;32;19990;-74
2022/04/10 01:58:52;;;;;;;;;;;;;;;9.60;49.39;99392.66;4422632;32;19983;-73
2022/04/10 02:01:19;;;;;;;;;;;;;;;9.62;49.35;99388.38;4416819;32;19978;-77
2022/04/10 02:03:47;;;;;;;;;;;;;;;9.46;49.30;99389.91;4411400;32;20824;-75
2022/04/10 02:06:14;;;;;;;;;;;;;;;9.54;48.97;99385.72;4400964;32;20000;-77
2022/04/10 02:08:42;;;;;;;;;;;;;;;9.35;49.57;99396.63;4420845;32;20009;-80
2022/04/10 02:11:14;;;;;;;;;;;;;;;9.44;49.44;99396.75;4412388;32;19993;-73
2022/04/10 02:13:42;;;;;;;;;;;;;;;9.61;48.80;99397.84;4401328;32;19982;-79
2022/04/10 02:16:13;;;;;;;;;;;;;;;9.69;48.50;99393.63;4426466;32;20041;-73
2022/04/10 02:18:40;;;;;;;;;;;;;;;9.61;48.54;99395.28;4401222;32;20043;-76
2022/04/10 02:21:07;;;;;;;;;;;;;;;9.66;48.79;99396.19;4415719;32;20472;-76
2022/04/10 02:23:35;;;;;;;;;;;;;;;9.45;49.12;99408.84;4416084;32;19996;-77
2022/04/10 02:26:03;;;;;;;;;;;;;;;9.38;49.11;99413.06;4412409;32;20043;-77
2022/04/10 02:28:30;;;;;;;;;;;;;;;9.45;49.06;99408.84;4414533;32;20044;-79
2022/04/10 02:30:57;;;;;;;;;;;;;;;9.59;48.15;99417.62;4411316;32;20394;-78
2022/04/10 02:33:25;;;;;;;;;;;;;;;9.20;49.72;99415.38;4404965;32;20045;-75
2022/04/10 02:35:51;;;;;;;;;;;;;;;9.35;49.29;99425.03;4400863;32;19978;-77
2022/04/10 02:38:19;;;;;;;;;;;;;;;9.18;49.78;99423.06;4418372;32;19990;-77
2022/04/10 02:40:46;;;;;;;;;;;;;;;9.09;49.93;99420.34;4413969;32;19990;-77
2022/04/10 02:43:14;;;;;;;;;;;;;;;9.13;49.65;99419.56;4401106;32;19978;-77
2022/04/10 02:45:41;;;;;;;;;;;;;;;9.03;49.88;99425.41;4420125;32;19990;-76
2022/04/10 02:48:09;;;;;;;;;;;;;;;9.38;48.89;99432.81;4412173;32;19994;-77
2022/04/10 02:50:36;;;;;;;;;;;;;;;9.03;49.75;99425.41;4400819;32;20043;-78
2022/04/10 02:53:03;;;;;;;;;;;;;;;8.91;50.25;99433.00;4406969;32;19994;-73
2022/04/10 02:55:30;;;;;;;;;;;;;;;9.21;49.63;99424.84;4406586;32;19986;-77
2022/04/10 02:58:16;;;;;;;;;;;;;;;9.26;49.20;99431.81;4410649;32;19998;-75
2022/04/10 03:01:01;;;;;;;;;;;;;;;9.13;49.64;99429.91;4400369;32;20342;-74
2022/04/10 03:03:47;;;;;;;;;;;;;;;9.38;48.97;99432.81;4404601;32;19986;-77
2022/04/10 03:06:32;;;;;;;;;;;;;;;9.43;48.84;99442.38;4399984;32;20370;-76
2022/04/10 03:09:17;;;;;;;;;;;;;;;9.29;49.44;99452.53;4406531;32;20663;-74
2022/04/10 03:12:04;;;;;;;;;;;;;;;9.28;49.10;99455.06;4410045;32;19994;-72
2022/04/10 03:14:50;;;;;;;;;;;;;;;8.99;49.99;99454.63;4400095;32;19978;-74
2022/04/10 03:17:36;;;;;;;;;;;;;;;8.65;50.99;99469.56;4417765;32;20000;-77
2022/04/10 03:20:21;;;;;;;;;;;;;;;9.01;49.78;99468.44;4404562;32;20000;-77
2022/04/10 03:23:10;;;;;;;;;;;;;;;8.99;50.11;99475.28;4400133;32;19982;-80
2022/04/10 03:25:56;;;;;;;;;;;;;;;9.19;49.53;99473.91;4417707;32;19974;-74
2022/04/10 03:28:42;;;;;;;;;;;;;;;9.25;49.17;99479.16;4400055;32;20057;-79
2022/04/10 03:31:27;;;;;;;;;;;;;;;9.24;49.16;99484.28;4409526;32;19990;-80
2022/04/10 03:34:13;;;;;;;;;;;;;;;9.22;49.10;99483.37;4407921;32;20488;-78
2022/04/10 03:36:59;;;;;;;;;;;;;;;9.27;48.85;99487.78;4425056;32;19990;-78
2022/04/10 03:39:44;;;;;;;;;;;;;;;9.34;48.50;99487.88;4410283;32;20000;-78
2022/04/10 03:42:36;;;;;;;;;;;;;;;8.99;49.73;99501.09;4400252;32;19994;-79
2022/04/10 03:45:22;;;;;;;;;;;;;;;8.98;49.90;99504.53;4408229;32;19997;-76
2022/04/10 03:48:09;;;;;;;;;;;;;;;9.17;49.12;99496.22;4404396;32;19974;-74
2022/04/10 03:50:55;;;;;;;;;;;;;;;9.20;49.21;99493.69;4403040;32;20035;-79
2022/04/10 03:53:41;;;;;;;;;;;;;;;9.00;49.77;99502.84;4407521;32;19998;-78
2022/04/10 03:56:27;;;;;;;;;;;;;;;8.87;50.31;99495.72;4393087;32;20009;-80
2022/04/10 03:59:15;;;;;;;;;;;;;;;9.03;49.85;99505.44;4406572;32;19982;-77
2022/04/10 04:02:00;;;;;;;;;;;;;;;9.12;49.81;99515.94;4407701;32;20053;-74
2022/04/10 04:04:47;;;;;;;;;;;;;;;9.10;49.31;99509.91;4401128;32;19985;-73
2022/04/10 04:07:32;;;;;;;;;;;;;;;8.98;49.45;99514.84;4415616;32;19990;-79
2022/04/10 04:10:19;;;;;;;;;;;;;;;8.97;50.23;99518.28;4401423;32;19977;-74
2022/04/10 04:13:04;;;;;;;;;;;;;;;9.03;49.97;99523.53;4412552;32;20334;-78
2022/04/10 04:15:51;;;;;;;;;;;;;;;9.01;49.65;99525.22;4403041;32;20374;-73
2022/04/10 04:18:38;;;;;;;;;;;;;;;8.77;50.79;99526.50;4417426;32;19982;-76
2022/04/10 04:21:24;;;;;;;;;;;;;;;8.77;50.74;99531.66;4423513;32;19981;-76
2022/04/10 04:24:11;;;;;;;;;;;;;;;8.29;52.04;99532.44;4405550;32;20748;-76
2022/04/10 04:26:57;;;;;;;;;;;;;;;8.67;51.04;99529.78;4414677;32;20032;-79
2022/04/10 04:29:42;;;;;;;;;;;;;;;8.57;51.44;99533.03;4411749;32;20339;-76
2022/04/10 04:32:28;;;;;;;;;;;;;;;8.55;51.57;99534.69;4401371;32;19974;-79
2022/04/10 04:35:15;;;;;;;;;;;;;;;8.87;50.19;99537.00;4400231;32;20001;-79
2022/04/10 04:38:01;;;;;;;;;;;;;;;8.87;50.25;99537.00;4417711;32;19989;-76
2022/04/10 04:40:47;;;;;;;;;;;;;;;8.81;50.61;99543.81;4400982;32;19982;-75
2022/04/10 04:43:32;;;;;;;;;;;;;;;8.57;51.51;99543.34;4410744;32;19974;-73
2022/04/10 04:46:18;;;;;;;;;;;;;;;8.74;50.83;99551.41;4405635;32;20012;-73
2022/04/10 04:49:04;;;;;;;;;;;;;;;8.63;51.40;99551.22;4426870;32;19989;-77
2022/04/10 04:51:49;;;;;;;;;;;;;;;8.28;52.32;99556.50;4433858;32;20305;-74
2022/04/10 04:54:36;;;;;;;;;;;;;;;8.63;51.33;99548.63;4409376;32;19981;-78
2022/04/10 04:57:21;;;;;;;;;;;;;;;9.02;50.13;99563.09;4404140;32;20012;-74
2022/04/10 05:00:07;;;;;;;;;;;;;;;8.79;51.03;99568.72;4407940;32;20718;-73
2022/04/10 05:02:53;;;;;;;;;;;;;;;9.28;49.76;99561.84;4400502;32;20050;-76
2022/04/10 05:05:39;;;;;;;;;;;;;;;9.22;50.35;99572.09;4401471;32;20017;-77
2022/04/10 05:08:26;;;;;;;;;;;;;;;9.01;50.73;99571.69;4401198;32;20020;-78
2022/04/10 05:11:13;;;;;;;;;;;;;;;9.08;50.35;99578.69;4401488;32;20347;-73
2022/04/10 05:13:58;;;;;;;;;;;;;;;9.20;50.06;99584.09;4407377;32;19982;-76
2022/04/10 05:16:45;;;;;;;;;;;;;;;9.07;50.24;99592.47;4409290;32;20403;-78
2022/04/10 05:19:30;;;;;;;;;;;;;;;9.00;51.05;99595.78;4421663;32;19988;-76
2022/04/10 05:22:16;;;;;;;;;;;;;;;8.82;51.39;99592.00;4407021;32;20398;-75
2022/04/10 05:25:04;;;;;;;;;;;;;;;8.79;51.53;99596.22;4419200;32;20002;-76
2022/04/10 05:27:50;;;;;;;;;;;;;;;9.02;50.72;99594.06;4410788;32;19982;-74
2022/04/10 05:30:35;;;;;;;;;;;;;;;9.05;51.05;99594.12;4401202;32;20028;-74
2022/04/10 05:33:22;;;;;;;;;;;;;;;8.90;51.79;99599.88;4410262;32;20469;-74
2022/04/10 05:36:07;;;;;;;;;;;;;;;8.64;51.60;99607.13;4402026;32;19989;-73
2022/04/10 05:38:54;;;;;;;;;;;;;;;9.03;51.22;99611.28;4407571;32;19978;-73
2022/04/10 05:41:39;;;;;;;;;;;;;;;9.61;49.19;99612.34;4402963;32;20000;-79
2022/04/10 05:44:26;;;;;;;;;;;;;;;8.96;50.83;99612.03;4410866;32;20418;-73
2022/04/10 05:47:11;;;;;;;;;;;;;;;8.28;53.05;99613.22;4422993;32;20005;-80
2022/04/10 05:49:57;;;;;;;;;;;;;;;9.23;50.30;99615.13;4431682;32;19974;-75
2022/04/10 05:52:45;;;;;;;;;;;;;;;9.31;50.26;99623.88;4426979;32;20044;-73
2022/04/10 05:55:31;;;;;;;;;;;;;;;9.45;50.01;99625.84;4409389;32;20021;-76
2022/04/10 05:58:16;;;;;;;;;;;;;;;9.73;48.95;99624.56;4403080;32;20343;-73
2022/04/10 06:01:02;;;;;;;;;;;;;;;9.28;50.67;99633.28;4413799;32;19981;-75
2022/04/10 06:03:48;;;;;;;;;;;;;;;9.58;49.64;99632.09;4417598;32;20005;-76
2022/04/10 06:06:34;;;;;;;;;;;;;;;9.47;50.72;99630.16;4403610;32;20328;-76
2022/04/10 06:09:20;;;;;;;;;;;;;;;9.45;51.22;99631.00;4402463;32;20037;-78
2022/04/10 06:12:06;;;;;;;;;;;;;;;9.58;50.08;99635.53;4419295;32;21310;-81
2022/04/10 06:14:53;;;;;;;;;;;;;;;9.78;49.75;99641.88;4424533;32;20024;-81
2022/04/10 06:17:20;;;;;;;;;;;;;;;9.99;49.30;99636.19;4441655;32;20333;-78
2022/04/10 06:19:47;;;;;;;;;;;;;;;10.09;48.59;99638.91;4397808;32;19982;-77
2022/04/10 06:22:15;;;;;;;;;;;;;;;10.04;48.48;99628.50;4390625;32;20738;-74
2022/04/10 06:24:41;;;;;;;;;;;;;;;10.21;47.03;99629.63;4400690;32;20017;-74
2022/04/10 06:27:09;;;;;;;;;;;;;;;9.73;48.55;99643.56;4399314;32;20006;-74
2022/04/10 06:29:36;;;;;;;;;;;;;;;9.59;48.76;99645.03;4400893;32;20020;-77
2022/04/10 06:32:03;;;;;;;;;;;;;;;9.75;49.32;99641.84;4400604;32;19974;-79
2022/04/10 06:34:30;;;;;;;;;;;;;;;10.17;47.94;99655.41;4402815;32;20024;-76
2022/04/10 06:36:57;;;;;;;;;;;;;;;9.97;48.59;99655.97;4407431;32;20303;-79
2022/04/10 06:39:25;;;;;;;;;;;;;;;10.61;47.05;99653.47;4411701;32;20077;-77
2022/04/10 06:41:52;;;;;;;;;;;;;;;10.82;47.35;99657.19;4415797;32;20387;-78
2022/04/10 06:44:21;;;;;;;;;;;;;;;10.96;46.43;99660.78;4418536;32;20005;-78
2022/04/10 06:46:48;;;;;;;;;;;;;;;11.32;45.58;99656.84;4411762;32;19986;-76
2022/04/10 06:49:17;;;;;;;;;;;;;;;10.77;46.85;99659.69;4411504;32;20049;-80
2022/04/10 06:51:44;;;;;;;;;;;;;;;11.22;46.40;99667.97;4401472;32;20028;-81
2022/04/10 06:54:11;;;;;;;;;;;;;;;11.95;45.75;99673.87;4406923;32;20004;-79
2022/04/10 06:56:38;;;;;;;;;;;;;;;12.29;43.81;99671.53;4408652;32;20377;-83
2022/04/10 06:59:05;;;;;;;;;;;;;;;12.58;42.47;99666.50;4411862;32;20005;-78
2022/04/10 07:01:32;;;;;;;;;;;;;;;13.03;40.88;99671.00;4411424;32;19974;-73
2022/04/10 07:04:04;;;;;;;;;;;;;;;12.92;41.70;99683.13;4407918;32;20061;-78
2022/04/10 07:06:31;;;;;;;;;;;;;;;12.95;41.51;99685.69;4400127;32;20756;-74
2022/04/10 07:08:59;;;;;;;;;;;;;;;12.46;43.02;99677.69;4411104;32;19974;-76
2022/04/10 07:11:26;;;;;;;;;;;;;;;13.29;40.74;99678.06;4413248;32;19982;-76
2022/04/10 07:13:52;;;;;;;;;;;;;;;12.99;41.48;99684.88;4420270;32;20323;-75
2022/04/10 07:16:19;;;;;;;;;;;;;;;13.22;41.29;99691.88;4407691;32;20044;-82
2022/04/10 07:18:46;;;;;;;;;;;;;;;13.31;41.67;99689.34;4414635;32;19985;-80
2022/04/10 07:21:13;;;;;;;;;;;;;;;13.82;40.93;99687.69;4404435;32;20044;-80
2022/04/10 07:23:45;;;;;;;;;;;;;;;13.99;40.47;99692.00;4414088;32;20040;-79
2022/04/10 07:26:13;;;;;;;;;;;;;;;14.08;39.27;99684.19;4412976;32;20804;-75
2022/04/10 07:28:42;;;;;;;;;;;;;;;14.35;40.00;99691.97;4399396;32;19982;-74
2022/04/10 07:31:09;;;;;;;;;;;;;;;14.09;39.04;99694.59;4415396;32;20009;-76
2022/04/10 07:33:36;;;;;;;;;;;;;;;14.36;38.98;99683.31;4388737;32;19978;-82
2022/04/10 07:36:05;;;;;;;;;;;;;;;14.33;39.18;99693.72;4388859;32;20001;-75
2022/04/10 07:38:33;;;;;;;;;;;;;;;14.32;40.23;99696.31;4400038;32;20326;-80
2022/04/10 07:41:01;;;;;;;;;;;;;;;14.68;38.41;99703.22;4409893;32;19994;-78
2022/04/10 07:43:28;;;;;;;;;;;;;;;14.96;37.60;99697.91;4429959;32;20016;-74
2022/04/10 07:48:42;;;;;;;;;;;;;;;15.40;37.60;99722.91;4412432;32;19990;-75
2022/04/10 07:51:10;;;;;;;;;;;;;;;15.79;37.24;99711.37;4413731;32;19985;-78
2022/04/10 07:53:38;;;;;;;;;;;;;;;15.73;36.81;99706.19;4419336;32;20642;-81
2022/04/10 07:56:05;;;;;;;;;;;;;;;16.06;35.46;99712.91;4404639;32;20020;-79
2022/04/10 07:58:32;;;;;;;;;;;;;;;16.18;36.42;99715.44;4407649;32;19998;-77
2022/04/10 08:01:01;;;;;;;;;;;;;;;16.15;34.54;99720.69;4399689;32;19990;-75
2022/04/10 08:03:28;;;;;;;;;;;;;;;16.22;35.42;99721.50;4400864;32;20133;-75
2022/04/10 08:05:56;;;;;;;;;;;;;;;16.42;34.86;99731.75;4411436;32;20020;-77
2022/04/10 08:08:23;;;;;;;;;;;;;;;16.14;37.80;99724.16;4402064;32;19987;-75
2022/04/10 08:10:51;;;;;;;;;;;;;;;15.95;37.62;99733.00;4402626;32;19974;-77
2022/04/10 08:13:18;;;;;;;;;;;;;;;16.47;37.53;99727.37;4427123;32;19985;-73
2022/04/10 08:15:46;;;;;;;;;;;;;;;16.58;34.16;99730.72;4421112;32;20004;-75
2022/04/10 08:18:13;;;;;;;;;;;;;;;15.88;36.99;99732.19;4405717;32;19996;-78
2022/04/10 08:20:39;;;;;;;;;;;;;;;15.89;36.02;99717.38;4401173;32;20638;-75
2022/04/10 08:23:06;;;;;;;;;;;;;;;16.15;33.97;99730.28;4402262;32;20863;-75
2022/04/10 08:25:33;;;;;;;;;;;;;;;16.13;33.09;99732.88;4408277;32;20065;-76
2022/04/10 08:28:00;;;;;;;;;;;;;;;15.63;36.88;99731.44;4404711;32;20348;-73
2022/04/10 08:30:27;;;;;;;;;;;;;;;15.57;36.96;99731.50;4408355;32;19998;-76
2022/04/10 08:32:54;;;;;;;;;;;;;;;16.25;34.24;99721.47;4397962;32;19986;-73
2022/04/10 08:35:21;;;;;;;;;;;;;;;15.86;37.09;99733.06;4407266;32;19997;-78
2022/04/10 08:37:48;;;;;;;;;;;;;;;16.38;33.30;99732.66;4413912;32;20007;-75
2022/04/10 08:40:15;;;;;;;;;;;;;;;16.37;32.65;99730.91;4402003;32;19966;-78
2022/04/10 08:42:42;;;;;;;;;;;;;;;16.11;33.21;99728.53;4415579;32;20519;-78
2022/04/10 08:45:09;;;;;;;;;;;;;;;15.98;33.77;99735.59;4410840;32;20697;-77
2022/04/10 08:47:39;;;;;;;;;;;;;;;16.11;34.20;99728.53;4430402;32;20283;-73
2022/04/10 08:50:07;;;;;;;;;;;;;;;16.04;33.72;99738.16;4404869;32;20330;-78
2022/04/10 08:52:34;;;;;;;;;;;;;;;15.89;32.85;99738.28;4402176;32;19992;-76
2022/04/10 08:55:04;;;;;;;;;;;;;;;15.99;31.75;99739.97;4419721;32;20406;-77
2022/04/10 08:57:31;;;;;;;;;;;;;;;16.00;35.83;99752.13;4400479;32;19994;-78
2022/04/10 09:00:00;;;;;;;;;;;;;;;15.73;35.77;99743.63;4401204;32;19983;-77
2022/04/10 09:02:27;;;;;;;;;;;;;;;16.21;32.31;99746.75;4408562;32;20278;-80
2022/04/10 09:04:54;;;;;;;;;;;;;;;16.22;33.03;99748.47;4425377;32;20377;-74
2022/04/10 09:07:21;;;;;;;;;;;;;;;15.84;33.99;99740.06;4429491;32;20031;-77
2022/04/10 09:09:52;;;;;;;;;;;;;;;15.57;32.76;99752.34;4257825;32;20015;-75
2022/04/10 09:12:18;;;;;;;;;;;;;;;15.51;35.66;99752.44;4312357;32;19982;-77
2022/04/10 09:14:45;;;;;;;;;;;;;;;14.93;37.53;99750.03;4431864;32;19981;-73
2022/04/10 09:17:15;;;;;;;;;;;;;;;15.49;33.44;99748.94;4441447;32;19981;-73
2022/04/10 09:19:42;;;;;;;;;;;;;;;15.66;34.63;99757.53;4423689;32;19978;-75
2022/04/10 09:22:22;;;;;;;;;;;;;;;15.66;33.63;99744.47;4416563;32;20103;-73
2022/04/10 09:25:01;;;;;;;;;;;;;;;15.88;32.69;99736.56;4428325;32;20000;-73
2022/04/10 09:27:29;;;;;;;;;;;;;;;15.50;34.24;99745.44;4424504;32;20476;-74
2022/04/10 09:29:56;;;;;;;;;;;;;;;15.48;33.83;99739.41;4428149;32;19998;-76
2022/04/10 09:32:23;;;;;;;;;;;;;;;15.69;33.78;99746.25;4427892;32;20353;-76
2022/04/10 09:34:56;;;;;;;;;;;;;;;15.78;33.14;99747.06;4418156;32;20433;-74
2022/04/10 09:37:27;;;;;;;;;;;;;;;15.64;33.88;99734.97;4432826;32;19982;-72
2022/04/10 09:39:54;;;;;;;;;;;;;;;15.58;35.95;99743.69;4432133;32;20040;-74
2022/04/10 09:42:29;;;;;;;;;;;;;;;15.49;33.91;99764.59;4444174;32;19994;-74
2022/04/10 09:45:27;;;;;;;;;;;;;;;15.64;34.25;99743.66;4433525;32;20026;-76
2022/04/10 09:47:54;;;;;;;;;;;;;;;15.72;32.62;99754.91;4419818;32;19989;-76
2022/04/10 09:50:31;;;;;;;;;;;;;;;15.57;33.47;99757.56;4418589;32;20352;-74
2022/04/10 09:52:58;;;;;;;;;;;;;;;15.50;33.59;99755.88;4420101;32;20450;-76
2022/04/10 09:55:35;;;;;;;;;;;;;;;15.86;31.84;99761.78;4425146;32;19981;-74
2022/04/10 09:58:05;;;;;;;;;;;;;;;15.79;32.73;99748.81;4417812;32;19997;-76
2022/04/10 10:00:32;;;;;;;;;;;;;;;16.01;32.17;99751.25;4424850;32;20011;-78
2022/04/10 10:02:59;;;;;;;;;;;;;;;15.84;31.93;99760.94;4427521;32;20357;-75
2022/04/10 10:05:26;;;;;;;;;;;;;;;15.16;34.90;99748.25;4428137;32;19977;-79
2022/04/10 10:07:53;;;;;;;;;;;;;;;15.42;31.41;99762.91;4429477;32;19978;-80
2022/04/10 10:10:20;;;;;;;;;;;;;;;15.47;30.81;99745.47;4439739;32;19973;-76
2022/04/10 10:12:47;;;;;;;;;;;;;;;15.59;30.75;99755.84;4436200;32;20741;-75
2022/04/10 10:15:14;;;;;;;;;;;;;;;15.33;33.29;99746.41;4420943;32;19982;-76
2022/04/10 10:17:41;;;;;;;;;;;;;;;15.03;35.96;99749.16;4402740;32;20084;-76
2022/04/10 10:20:09;;;;;;;;;;;;;;;15.30;34.33;99754.25;4418565;32;19987;-76
2022/04/10 10:22:36;;;;;;;;;;;;;;;15.44;35.67;99750.69;4416383;32;20449;-75
2022/04/10 10:25:10;;;;;;;;;;;;;;;15.50;34.00;99761.09;4402470;32;20701;-76
2022/04/10 10:27:39;;;;;;;;;;;;;;;15.42;34.27;99757.69;4415254;32;20015;-73
2022/04/10 10:30:21;;;;;;;;;;;;;;;15.50;32.54;99750.66;4430436;32;20506;-79
2022/04/10 10:32:49;;;;;;;;;;;;;;;15.05;34.24;99752.59;4401592;32;20001;-77
2022/04/10 10:35:29;;;;;;;;;;;;;;;15.56;32.71;99761.06;4427855;32;19993;-76
2022/04/10 10:37:56;;;;;;;;;;;;;;;15.15;35.91;99758.66;4424442;32;19989;-73
2022/04/10 10:40:23;;;;;;;;;;;;;;;14.74;35.85;99763.16;4437644;32;19973;-78
2022/04/10 10:42:51;;;;;;;;;;;;;;;15.08;35.94;99757.81;4400362;32;20058;-79
2022/04/10 10:45:36;;;;;;;;;;;;;;;15.21;37.04;99762.09;4443167;32;19982;-78
2022/04/10 10:48:23;;;;;;;;;;;;;;;15.51;35.61;99757.63;4426572;32;19982;-77
2022/04/10 10:50:50;;;;;;;;;;;;;;;15.44;32.83;99761.12;4417598;32;20026;-73
2022/04/10 10:53:32;;;;;;;;;;;;;;;15.64;32.17;99755.84;4417937;32;20032;-78
2022/04/10 10:55:59;;;;;;;;;;;;;;;14.82;35.61;99761.38;4436247;32;20380;-77
2022/04/10 10:58:30;;;;;;;;;;;;;;;14.76;34.31;99764.00;4427473;32;19996;-74
2022/04/10 11:01:02;;;;;;;;;;;;;;;15.30;32.61;99764.69;4427359;32;19982;-76
2022/04/10 11:03:29;;;;;;;;;;;;;;;15.05;33.85;99756.09;4428196;32;20354;-75
2022/04/10 11:06:05;;;;;;;;;;;;;;;14.71;37.62;99763.16;4435022;32;20004;-80
2022/04/10 11:08:39;;;;;;;;;;;;;;;14.83;33.55;99755.28;4417717;32;19981;-76
2022/04/10 11:11:07;;;;;;;;;;;;;;;15.34;31.91;99758.56;4437925;32;19997;-72
2022/04/10 11:13:38;;;;;;;;;;;;;;;15.01;32.29;99750.91;4446742;32;19989;-74
2022/04/10 11:16:12;;;;;;;;;;;;;;;14.76;31.61;99756.16;4440615;32;20025;-72
2022/04/10 11:18:43;;;;;;;;;;;;;;;14.40;34.02;99757.94;4422756;32;19986;-77
2022/04/10 11:21:10;;;;;;;;;;;;;;;14.28;35.90;99752.72;4415730;32;19974;-76
2022/04/10 11:23:48;;;;;;;;;;;;;;;14.66;33.65;99744.03;4424450;32;20027;-77
2022/04/10 11:26:16;;;;;;;;;;;;;;;14.91;32.73;99738.78;4432235;32;20380;-81
2022/04/10 11:28:55;;;;;;;;;;;;;;;15.08;31.02;99747.38;4417006;32;20001;-72
2022/04/10 11:31:33;;;;;;;;;;;;;;;14.82;31.17;99745.72;4417185;32;19981;-75
2022/04/10 11:34:19;;;;;;;;;;;;;;;14.91;29.57;99741.37;4409055;32;19994;-75
2022/04/10 11:36:52;;;;;;;;;;;;;;;14.86;33.17;99763.09;4416437;32;20372;-79
2022/04/10 11:39:23;;;;;;;;;;;;;;;15.21;29.55;99738.62;4418348;32;20766;-74
2022/04/10 11:41:50;;;;;;;;;;;;;;;15.53;31.83;99745.44;4427469;32;19974;-76
2022/04/10 11:44:18;;;;;;;;;;;;;;;15.50;30.58;99735.88;4119331;32;19990;-82
2022/04/10 11:46:44;;;;;;;;;;;;;;;15.37;30.61;99738.56;4429199;32;19981;-78
2022/04/10 11:49:12;;;;;;;;;;;;;;;15.12;31.82;99730.84;4436920;32;20000;-77
2022/04/10 11:52:08;;;;;;;;;;;;;;;15.41;28.93;99737.66;4413185;32;19974;-76
2022/04/10 11:54:37;;;;;;;;;;;;;;;15.51;28.54;99739.38;4410462;32;19986;-78
2022/04/10 11:57:07;;;;;;;;;;;;;;;15.22;27.59;99743.00;4399599;32;19999;-73
2022/04/10 11:59:42;;;;;;;;;;;;;;;15.25;29.33;99756.03;4444254;32;21065;-74
2022/04/10 12:02:10;;;;;;;;;;;;;;;15.41;30.25;99750.72;4425734;32;19990;-74
2022/04/10 12:04:37;;;;;;;;;;;;;;;15.49;30.53;99754.16;4403534;32;20327;-74
2022/04/10 12:07:15;;;;;;;;;;;;;;;15.51;27.69;99755.91;4418464;32;20649;-72
2022/04/10 12:09:43;;;;;;;;;;;;;;;15.13;28.42;99752.59;4395972;32;20397;-74
2022/04/10 12:12:10;;;;;;;;;;;;;;;14.94;28.83;99749.19;4382832;32;19982;-72
2022/04/10 12:14:37;;;;;;;;;;;;;;;14.42;33.04;99751.00;4409578;32;20009;-72
2022/04/10 12:17:09;;;;;;;;;;;;;;;14.89;30.98;99755.25;4394910;32;19990;-75
2022/04/10 12:19:36;;;;;;;;;;;;;;;14.98;30.42;99761.34;4410036;32;20008;-74
2022/04/10 12:22:03;;;;;;;;;;;;;;;15.23;27.29;99749.94;4389590;32;20009;-72
2022/04/10 12:24:30;;;;;;;;;;;;;;;15.37;26.24;99749.00;4398014;32;20008;-73
2022/04/10 12:26:58;;;;;;;;;;;;;;;15.43;29.83;99756.81;4395984;32;20029;-73
2022/04/10 12:29:24;;;;;;;;;;;;;;;15.64;27.61;99759.31;4405756;32;20117;-72
2022/04/10 12:31:54;;;;;;;;;;;;;;;15.49;27.44;99741.13;4394284;32;19988;-74
2022/04/10 12:34:21;;;;;;;;;;;;;;;15.23;28.68;99756.91;4397666;32;19987;-73
2022/04/10 12:36:51;;;;;;;;;;;;;;;14.90;30.50;99753.56;4378742;32;20002;-73
2022/04/10 12:39:28;;;;;;;;;;;;;;;14.65;30.02;99757.94;4402541;32;20018;-73
2022/04/10 12:42:13;;;;;;;;;;;;;;;15.01;29.46;99751.75;4407539;32;19990;-70
2022/04/10 12:44:40;;;;;;;;;;;;;;;15.30;30.23;99748.16;4393959;32;19989;-78
2022/04/10 12:47:08;;;;;;;;;;;;;;;15.57;29.78;99747.16;4377244;32;20355;-76
2022/04/10 12:49:39;;;;;;;;;;;;;;;15.67;29.96;99748.87;4404027;32;19978;-81
2022/04/10 12:52:08;;;;;;;;;;;;;;;15.64;27.88;99750.63;4404306;32;19983;-72
2022/04/10 12:54:42;;;;;;;;;;;;;;;16.02;26.42;99739.94;4403423;32;20029;-73
2022/04/10 12:57:13;;;;;;;;;;;;;;;16.03;27.54;99741.66;4387599;32;20791;-72
2022/04/10 12:59:40;;;;;;;;;;;;;;;15.92;28.35;99748.69;4363149;32;20403;-77
2022/04/10 13:02:09;;;;;;;;;;;;;;;15.98;26.92;99748.66;4395419;32;19993;-75
2022/04/10 13:04:37;;;;;;;;;;;;;;;15.88;27.87;99747.00;4381439;32;20032;-78
2022/04/10 13:07:16;;;;;;;;;;;;;;;15.58;29.13;99743.69;4377635;32;19979;-74
2022/04/10 13:09:48;;;;;;;;;;;;;;;15.19;28.98;99744.72;4391045;32;20327;-75
2022/04/10 13:12:22;;;;;;;;;;;;;;;14.98;31.13;99748.31;4381252;32;20024;-73
2022/04/10 13:14:50;;;;;;;;;;;;;;;15.42;28.18;99755.06;4396062;32;19986;-74
2022/04/10 13:17:17;;;;;;;;;;;;;;;15.13;31.56;99745.66;4368959;32;20402;-76
2022/04/10 13:19:44;;;;;;;;;;;;;;;15.23;30.78;99752.53;4394865;32;20412;-73
2022/04/10 13:22:11;;;;;;;;;;;;;;;15.27;26.92;99754.25;4405633;32;19978;-73